createdAt,value
2022-08-04T00:01:47.129Z,71.61
2022-08-04T00:04:29.598Z,71.71
2022-08-04T00:07:10.475Z,71.82
2022-08-04T00:09:53.839Z,72.17
2022-08-04T00:12:31.490Z,72.14
2022-08-04T00:15:14.725Z,72.33
2022-08-04T00:17:52.417Z,72.48
2022-08-04T00:20:26.025Z,72.50
2022-08-04T00:22:58.858Z,72.52
2022-08-04T00:25:31.381Z,72.43
2022-08-04T00:28:03.711Z,72.56
2022-08-04T00:30:35.634Z,72.70
2022-08-04T00:33:22.009Z,73.07
2022-08-04T00:36:23.854Z,73.16
2022-08-04T00:38:55.904Z,73.21
2022-08-04T00:41:56.408Z,73.15
2022-08-04T00:44:53.384Z,73.10
2022-08-04T00:47:59.310Z,73.20
2022-08-04T00:50:53.789Z,73.24
2022-08-04T00:53:38.461Z,73.09
2022-08-04T00:56:47.891Z,73.18
2022-08-04T00:59:36.794Z,72.97
2022-08-04T01:02:19.853Z,72.93
2022-08-04T01:05:09.044Z,72.96
2022-08-04T01:08:19.276Z,72.93
2022-08-04T01:11:05.696Z,73.03
2022-08-04T01:14:10.314Z,73.04
2022-08-04T01:16:53.145Z,73.05
2022-08-04T01:20:05.741Z,73.04
2022-08-04T01:23:13.652Z,73.17
2022-08-04T01:26:43.489Z,73.06
2022-08-04T01:29:22.377Z,73.10
2022-08-04T01:32:15.304Z,73.17
2022-08-04T01:35:05.604Z,73.10
2022-08-04T01:37:59.993Z,73.37
2022-08-04T01:40:43.140Z,73.33
2022-08-04T01:43:17.865Z,73.61
2022-08-04T01:45:59.447Z,73.63
2022-08-04T01:49:14.176Z,73.70
2022-08-04T01:52:09.007Z,73.52
2022-08-04T01:55:02.733Z,73.56
2022-08-04T01:57:39.542Z,73.51
2022-08-04T02:00:16.272Z,73.67
2022-08-04T02:02:51.812Z,73.74
2022-08-04T02:06:03.358Z,73.75
2022-08-04T02:08:47.404Z,73.77
2022-08-04T02:11:32.614Z,73.71
2022-08-04T02:14:39.824Z,73.68
2022-08-04T02:17:16.650Z,73.92
2022-08-04T02:20:13.876Z,73.77
2022-08-04T02:22:54.438Z,73.79
2022-08-04T02:25:28.356Z,73.96
2022-08-04T02:28:30.905Z,73.97
2022-08-04T02:31:40.300Z,73.95
2022-08-04T02:34:32.028Z,74.15
2022-08-04T02:37:07.575Z,74.15
2022-08-04T02:39:54.496Z,74.17
2022-08-04T02:43:08.390Z,74.25
2022-08-04T02:46:01.172Z,74.28
2022-08-04T02:48:54.648Z,74.36
2022-08-04T02:51:41.937Z,74.55
2022-08-04T02:54:22.302Z,74.48
2022-08-04T02:57:09.390Z,74.65
2022-08-04T03:00:11.933Z,74.72
2022-08-04T03:03:04.160Z,74.83
2022-08-04T03:06:01.538Z,74.90
2022-08-04T03:09:49.236Z,75.07
2022-08-04T03:13:15.634Z,75.26
2022-08-04T03:16:24.538Z,75.39
2022-08-04T03:19:29.151Z,75.45
2022-08-04T03:22:53.787Z,75.67
2022-08-04T03:26:20.005Z,75.89
2022-08-04T03:29:35.942Z,75.92
2022-08-04T03:33:02.815Z,75.99
2022-08-04T03:36:34.443Z,76.12
2022-08-04T03:39:49.280Z,76.12
2022-08-04T03:42:53.281Z,76.26
2022-08-04T03:45:58.810Z,76.26
2022-08-04T03:49:26.635Z,76.29
2022-08-04T03:52:26.924Z,76.29
2022-08-04T03:55:29.905Z,76.16
2022-08-04T03:58:36.740Z,76.30
2022-08-04T04:01:25.260Z,76.42
2022-08-04T04:04:35.944Z,76.42
2022-08-04T04:08:01.995Z,76.40
2022-08-04T04:11:01.731Z,76.49
2022-08-04T04:13:44.948Z,76.63
2022-08-04T04:16:34.273Z,76.83
2022-08-04T04:19:49.308Z,76.78
2022-08-04T04:22:40.234Z,77.00
2022-08-04T04:25:44.125Z,77.22
2022-08-04T04:28:45.620Z,77.32
2022-08-04T04:32:05.023Z,77.30
2022-08-04T04:34:49.739Z,77.44
2022-08-04T04:37:48.657Z,77.51
2022-08-04T04:40:35.498Z,77.49
2022-08-04T04:43:59.677Z,77.49
2022-08-04T04:46:39.176Z,77.58
2022-08-04T04:49:46.381Z,77.70
2022-08-04T04:52:38.234Z,77.69
2022-08-04T04:55:17.084Z,77.88
2022-08-04T04:57:58.112Z,77.96
2022-08-04T05:01:09.651Z,78.13
2022-08-04T05:03:58.176Z,78.08
2022-08-04T05:06:45.718Z,78.13
2022-08-04T05:09:53.766Z,78.14
2022-08-04T05:14:37.361Z,78.14
2022-08-04T05:17:03.171Z,78.30
2022-08-04T05:19:53.188Z,78.42
2022-08-04T05:22:30.923Z,78.53
2022-08-04T05:25:10.053Z,78.56
2022-08-04T05:28:02.331Z,78.67
2022-08-04T05:30:48.699Z,78.68
2022-08-04T05:33:29.171Z,78.81
2022-08-04T05:36:39.992Z,78.87
2022-08-04T05:39:24.384Z,78.93
2022-08-04T05:42:10.586Z,78.99
2022-08-04T05:45:08.510Z,79.14
2022-08-04T05:48:08.148Z,79.14
2022-08-04T05:51:01.282Z,79.20
2022-08-04T05:53:44.920Z,79.21
2022-08-04T05:56:38.086Z,79.27
2022-08-04T05:59:43.056Z,79.26
2022-08-04T06:02:45.027Z,79.34
2022-08-04T06:05:25.009Z,79.31
2022-08-04T06:08:13.480Z,79.30
2022-08-04T06:11:10.077Z,79.26
2022-08-04T06:14:09.134Z,79.39
2022-08-04T06:16:49.417Z,79.30
2022-08-04T06:20:03.531Z,79.41
2022-08-04T06:22:29.534Z,79.28
2022-08-04T06:25:29.792Z,79.25
2022-08-04T06:28:16.319Z,79.16
2022-08-04T06:32:31.377Z,79.03
2022-08-04T06:34:06.551Z,78.95
2022-08-04T06:36:51.040Z,78.84
2022-08-04T06:39:42.901Z,78.90
2022-08-04T06:42:37.138Z,78.82
2022-08-04T06:45:23.561Z,78.36
2022-08-04T06:48:01.659Z,78.33
2022-08-04T06:51:26.317Z,78.16
2022-08-04T06:54:11.745Z,78.08
2022-08-04T06:56:54.290Z,77.99
2022-08-04T06:59:30.091Z,77.95
2022-08-04T07:02:04.884Z,77.81
2022-08-04T07:04:36.905Z,77.79
2022-08-04T07:07:37.041Z,77.62
2022-08-04T07:10:58.904Z,77.46
2022-08-04T07:13:34.386Z,77.23
2022-08-04T07:16:14.642Z,76.94
2022-08-04T07:18:46.394Z,76.81
2022-08-04T07:21:28.004Z,76.56
2022-08-04T07:24:20.530Z,76.33
2022-08-04T07:26:54.155Z,76.25
2022-08-04T07:29:28.527Z,75.96
2022-08-04T07:32:03.710Z,75.83
2022-08-04T07:34:49.834Z,75.48
2022-08-04T07:37:24.758Z,75.45
2022-08-04T07:40:12.151Z,75.13
2022-08-04T07:42:45.007Z,74.44
2022-08-04T07:45:19.325Z,73.93
2022-08-04T07:48:05.297Z,73.16
2022-08-04T07:50:50.978Z,71.76
2022-08-04T07:53:54.009Z,70.73
2022-08-04T07:56:18.959Z,69.62
2022-08-04T07:58:50.567Z,67.50
2022-08-04T08:01:22.552Z,65.39
2022-08-04T08:03:54.535Z,64.15
2022-08-04T08:06:32.399Z,61.94
2022-08-04T08:09:14.749Z,60.34
2022-08-04T08:12:35.579Z,58.91
2022-08-04T08:14:40.182Z,57.06
2022-08-04T08:17:11.848Z,54.82
2022-08-04T08:19:59.720Z,53.40
2022-08-04T08:22:32.893Z,51.14
2022-08-04T08:25:05.248Z,50.04
2022-08-04T08:28:46.185Z,49.36
2022-08-04T08:31:59.483Z,49.19
2022-08-04T08:35:26.466Z,45.55
2022-08-04T08:38:04.484Z,44.32
2022-08-04T08:40:45.074Z,43.73
2022-08-04T08:44:05.462Z,43.39
2022-08-04T08:46:49.751Z,43.13
2022-08-04T08:50:01.125Z,43.02
2022-08-04T08:52:56.300Z,44.06
2022-08-04T08:55:42.408Z,43.74
2022-08-04T08:58:32.853Z,45.04
2022-08-04T09:01:13.686Z,44.21
2022-08-04T09:04:23.849Z,43.01
2022-08-04T09:07:15.276Z,39.99
2022-08-04T09:10:00.381Z,38.86
2022-08-04T09:12:42.741Z,39.68
2022-08-04T09:15:17.532Z,40.67
2022-08-04T09:17:55.471Z,42.14
2022-08-04T09:20:33.047Z,42.80
2022-08-04T09:23:21.625Z,41.56
2022-08-04T09:25:59.365Z,40.55
2022-08-04T09:28:53.600Z,39.22
2022-08-04T09:31:48.784Z,36.91
2022-08-04T09:34:39.976Z,36.24
2022-08-04T09:37:20.162Z,34.95
2022-08-04T09:40:03.643Z,34.18
2022-08-04T09:42:47.943Z,34.04
2022-08-04T09:45:39.190Z,34.99
2022-08-04T09:48:22.074Z,35.14
2022-08-04T09:51:00.032Z,34.19
2022-08-04T09:53:47.491Z,33.87
2022-08-04T09:56:25.060Z,32.85
2022-08-04T09:59:08.308Z,32.51
2022-08-04T10:01:42.263Z,30.35
2022-08-04T10:04:20.084Z,28.79
2022-08-04T10:07:13.493Z,27.74
2022-08-04T10:09:59.882Z,27.23
2022-08-04T10:12:53.637Z,25.79
2022-08-04T10:15:35.682Z,26.86
2022-08-04T10:18:22.263Z,26.14
2022-08-04T10:21:14.820Z,25.40
2022-08-04T10:24:11.861Z,25.97
2022-08-04T10:27:03.817Z,27.00
2022-08-04T10:29:48.217Z,25.60
2022-08-04T10:32:24.753Z,25.37
2022-08-04T10:35:10.157Z,25.06
2022-08-04T10:38:00.343Z,27.23
2022-08-04T10:40:37.876Z,28.24
2022-08-04T10:43:22.856Z,27.41
2022-08-04T10:46:37.917Z,26.07
2022-08-04T10:49:27.696Z,24.52
2022-08-04T10:52:09.910Z,24.14
2022-08-04T10:54:52.401Z,25.23
2022-08-04T10:57:31.345Z,26.42
2022-08-04T11:00:08.963Z,28.73
2022-08-04T11:03:09.281Z,28.21
2022-08-04T11:05:50.940Z,26.83
2022-08-04T11:08:26.758Z,25.65
2022-08-04T11:11:03.149Z,23.50
2022-08-04T11:13:47.353Z,22.82
2022-08-04T11:19:52.790Z,23.51
2022-08-04T11:22:28.561Z,24.55
2022-08-04T11:25:09.740Z,24.72
2022-08-04T11:27:55.363Z,23.45
2022-08-04T11:30:32.354Z,22.96
2022-08-04T11:33:22.520Z,24.86
2022-08-04T11:36:03.505Z,24.37
2022-08-04T11:38:45.544Z,23.03
2022-08-04T11:41:48.089Z,22.21
2022-08-04T11:44:30.334Z,21.21
2022-08-04T11:47:05.037Z,21.05
2022-08-04T11:49:56.766Z,19.78
2022-08-04T11:52:33.215Z,19.70
2022-08-04T11:55:10.221Z,19.09
2022-08-04T11:57:42.268Z,20.47
2022-08-04T12:00:17.955Z,20.88
2022-08-04T12:03:23.758Z,21.79
2022-08-04T12:06:10.783Z,23.14
2022-08-04T12:09:04.606Z,24.45
2022-08-04T12:11:56.459Z,26.43
2022-08-04T12:14:41.517Z,27.99
2022-08-04T12:17:17.422Z,29.93
2022-08-04T12:20:04.823Z,31.56
2022-08-04T12:22:51.352Z,32.84
2022-08-04T12:25:31.960Z,33.91
2022-08-04T12:28:07.553Z,33.88
2022-08-04T12:30:59.156Z,34.05
2022-08-04T12:34:04.614Z,32.00
2022-08-04T12:36:41.395Z,29.58
2022-08-04T12:39:18.015Z,30.31
2022-08-04T12:41:59.704Z,30.79
2022-08-04T12:44:37.956Z,31.49
2022-08-04T12:47:36.738Z,31.71
2022-08-04T12:50:06.596Z,29.23
2022-08-04T12:53:03.721Z,27.06
2022-08-04T12:55:37.737Z,24.17
2022-08-04T12:58:43.103Z,22.98
2022-08-04T13:02:07.365Z,23.94
2022-08-04T13:04:13.286Z,24.22
2022-08-04T13:06:45.955Z,23.47
2022-08-04T13:09:20.869Z,22.22
2022-08-04T13:11:55.303Z,23.47
2022-08-04T13:14:30.349Z,25.02
2022-08-04T13:17:04.408Z,26.43
2022-08-04T13:19:41.351Z,26.86
2022-08-04T13:22:16.455Z,27.52
2022-08-04T13:24:56.520Z,27.36
2022-08-04T13:27:43.162Z,27.71
2022-08-04T13:30:22.888Z,27.89
2022-08-04T13:32:56.816Z,28.15
2022-08-04T13:35:55.578Z,28.27
2022-08-04T13:38:22.014Z,28.22
2022-08-04T13:40:56.120Z,28.18
2022-08-04T13:44:16.921Z,27.20
2022-08-04T13:46:28.046Z,27.76
2022-08-04T13:51:59.037Z,28.78
2022-08-04T13:54:42.720Z,28.36
2022-08-04T13:57:20.038Z,28.39
2022-08-04T13:59:57.720Z,27.88
2022-08-04T14:02:44.317Z,27.72
2022-08-04T14:05:27.258Z,27.58
2022-08-04T14:08:13.572Z,27.12
2022-08-04T14:10:54.542Z,26.38
2022-08-04T14:13:41.772Z,24.89
2022-08-04T14:16:23.047Z,25.61
2022-08-04T14:19:17.843Z,26.98
2022-08-04T14:21:56.489Z,28.07
2022-08-04T14:24:30.316Z,28.70
2022-08-04T14:27:03.456Z,27.40
2022-08-04T14:34:09.723Z,25.92
2022-08-04T14:37:13.231Z,26.98
2022-08-04T14:40:17.201Z,26.90
2022-08-04T14:42:55.377Z,26.92
2022-08-04T14:45:36.444Z,27.41
2022-08-04T14:48:10.938Z,27.38
2022-08-04T14:50:45.197Z,26.61
2022-08-04T14:53:18.535Z,26.03
2022-08-04T14:55:52.175Z,27.04
2022-08-04T14:58:35.008Z,27.98
2022-08-04T15:01:12.977Z,29.18
2022-08-04T15:03:50.597Z,30.25
2022-08-04T15:06:35.638Z,30.86
2022-08-04T15:09:19.748Z,31.45
2022-08-04T15:12:09.288Z,32.25
2022-08-04T15:14:45.439Z,33.20
2022-08-04T15:17:29.402Z,33.86
2022-08-04T15:20:03.058Z,34.08
2022-08-04T15:22:34.650Z,34.34
2022-08-04T15:25:06.560Z,34.58
2022-08-04T15:27:44.635Z,34.37
2022-08-04T15:30:18.683Z,34.29
2022-08-04T15:32:59.687Z,33.87
2022-08-04T15:35:39.244Z,32.83
2022-08-04T15:38:27.676Z,32.32
2022-08-04T15:41:11.997Z,31.77
2022-08-04T15:44:15.602Z,31.51
2022-08-04T15:47:21.878Z,31.31
2022-08-04T15:50:10.272Z,30.41
2022-08-04T15:54:01.308Z,30.36
2022-08-04T15:56:14.154Z,28.78
2022-08-04T15:58:57.496Z,29.26
2022-08-04T16:01:34.460Z,29.77
2022-08-04T16:04:26.615Z,30.00
2022-08-04T16:07:11.187Z,30.31
2022-08-04T16:09:46.352Z,30.30
2022-08-04T16:12:54.151Z,30.41
2022-08-04T16:15:52.510Z,30.90
2022-08-04T16:18:44.187Z,30.92
2022-08-04T16:21:36.583Z,31.24
2022-08-04T16:24:22.356Z,32.83
2022-08-04T16:26:57.512Z,34.38
2022-08-04T16:29:42.427Z,35.39
2022-08-04T16:32:25.166Z,36.13
2022-08-04T16:35:04.427Z,36.25
2022-08-04T16:37:39.063Z,36.13
2022-08-04T16:40:41.263Z,35.98
2022-08-04T16:43:20.963Z,36.20
2022-08-04T16:46:00.258Z,36.54
2022-08-04T16:48:33.299Z,36.96
2022-08-04T16:51:14.778Z,37.09
2022-08-04T16:53:52.030Z,36.91
2022-08-04T16:56:33.434Z,37.07
2022-08-04T16:59:15.817Z,37.20
2022-08-04T17:01:51.986Z,37.19
2022-08-04T17:04:33.818Z,37.26
2022-08-04T17:07:14.246Z,37.24
2022-08-04T17:09:56.357Z,36.86
2022-08-04T17:12:37.000Z,36.55
2022-08-04T17:15:23.769Z,36.41
2022-08-04T17:18:17.086Z,36.40
2022-08-04T17:20:59.120Z,36.46
2022-08-04T17:24:12.599Z,36.55
2022-08-04T17:26:39.829Z,36.49
2022-08-04T17:29:13.521Z,36.63
2022-08-04T17:31:53.324Z,36.76
2022-08-04T17:34:26.649Z,36.54
2022-08-04T17:37:36.538Z,36.23
2022-08-04T17:40:10.859Z,36.40
2022-08-04T17:42:45.771Z,36.82
2022-08-04T17:48:24.914Z,37.92
2022-08-04T17:51:17.107Z,38.63
2022-08-04T17:57:03.662Z,39.72
2022-08-04T17:59:56.619Z,40.16
2022-08-04T18:02:31.721Z,40.30
2022-08-04T18:05:12.268Z,40.55
2022-08-04T18:08:39.905Z,40.53
2022-08-04T18:10:52.403Z,40.33
2022-08-04T18:13:28.969Z,39.28
2022-08-04T18:16:14.280Z,38.82
2022-08-04T18:19:12.960Z,38.73
2022-08-04T18:21:59.468Z,38.37
2022-08-04T18:24:35.230Z,38.09
2022-08-04T18:27:29.727Z,37.95
2022-08-04T18:30:33.486Z,38.14
2022-08-04T18:33:24.497Z,37.96
2022-08-04T18:36:35.387Z,38.23
2022-08-04T18:38:55.776Z,38.02
2022-08-04T18:42:00.886Z,37.96
2022-08-04T18:47:19.579Z,38.40
2022-08-04T18:51:11.320Z,38.76
2022-08-04T18:52:46.100Z,39.21
2022-08-04T18:55:55.995Z,39.54
2022-08-04T18:58:13.628Z,39.91
2022-08-04T19:00:50.491Z,40.34
2022-08-04T19:03:23.096Z,40.53
2022-08-04T19:05:54.842Z,40.74
2022-08-04T19:08:33.194Z,40.94
2022-08-04T19:11:38.725Z,41.17
2022-08-04T19:14:03.556Z,41.20
2022-08-04T19:16:37.049Z,41.27
2022-08-04T19:19:10.584Z,41.38
2022-08-04T19:21:59.881Z,41.45
2022-08-04T19:24:34.590Z,41.28
2022-08-04T19:27:08.639Z,41.10
2022-08-04T19:29:43.234Z,41.27
2022-08-04T19:32:16.465Z,41.47
2022-08-04T19:34:49.428Z,41.56
2022-08-04T19:37:58.098Z,41.87
2022-08-04T19:40:33.624Z,42.38
2022-08-04T19:43:15.455Z,42.63
2022-08-04T19:45:47.085Z,42.84
2022-08-04T19:48:20.136Z,43.06
2022-08-04T19:50:52.236Z,43.30
2022-08-04T19:53:33.177Z,43.56
2022-08-04T19:56:18.291Z,44.00
2022-08-04T19:58:49.783Z,44.29
2022-08-04T20:01:33.558Z,44.40
2022-08-04T20:04:11.343Z,44.67
2022-08-04T20:06:42.911Z,44.97
2022-08-04T20:09:26.655Z,45.16
2022-08-04T20:11:59.485Z,45.63
2022-08-04T20:14:32.819Z,45.60
2022-08-04T20:17:10.167Z,45.60
2022-08-04T20:19:51.120Z,45.24
2022-08-04T20:22:52.553Z,45.43
2022-08-04T20:25:36.946Z,45.60
2022-08-04T20:28:10.332Z,45.67
2022-08-04T20:30:58.247Z,46.10
2022-08-04T20:33:32.677Z,46.33
2022-08-04T20:36:14.210Z,46.77
2022-08-04T20:38:50.219Z,46.92
2022-08-04T20:41:24.840Z,47.27
2022-08-04T20:44:12.292Z,47.67
2022-08-04T20:46:46.761Z,47.67
2022-08-04T20:49:35.408Z,47.75
2022-08-04T20:52:20.227Z,48.12
2022-08-04T20:54:56.028Z,48.45
2022-08-04T20:57:49.390Z,48.62
2022-08-04T21:00:30.060Z,49.22
2022-08-04T21:03:02.416Z,49.44
2022-08-04T21:05:37.657Z,49.49
2022-08-04T21:08:13.419Z,49.64
2022-08-04T21:11:06.928Z,49.93
2022-08-04T21:13:59.381Z,50.15
2022-08-04T21:16:54.799Z,50.28
2022-08-04T21:19:36.787Z,50.59
2022-08-04T21:22:10.427Z,50.70
2022-08-04T21:24:54.622Z,50.97
2022-08-04T21:27:31.674Z,51.38
2022-08-04T21:30:23.933Z,51.36
2022-08-04T21:32:57.317Z,51.73
2022-08-04T21:35:42.529Z,51.97
2022-08-04T21:38:17.314Z,52.24
2022-08-04T21:41:11.584Z,52.61
2022-08-04T21:44:09.791Z,52.72
2022-08-04T21:46:51.053Z,52.77
2022-08-04T21:49:33.861Z,53.06
2022-08-04T21:52:10.523Z,53.23
2022-08-04T21:55:05.533Z,53.27
2022-08-04T21:57:49.221Z,53.51
2022-08-04T22:00:24.069Z,53.68
2022-08-04T22:06:17.511Z,53.99
2022-08-04T22:08:53.774Z,54.06
2022-08-04T22:11:50.421Z,54.38
2022-08-04T22:14:34.848Z,54.61
2022-08-04T22:17:06.727Z,54.74
2022-08-04T22:20:29.012Z,54.77
2022-08-04T22:23:16.869Z,55.01
2022-08-04T22:26:03.435Z,55.16
2022-08-04T22:28:37.417Z,55.18
2022-08-04T22:31:27.259Z,55.25
2022-08-04T22:34:45.684Z,55.31
2022-08-04T22:37:28.618Z,55.30
2022-08-04T22:40:42.053Z,55.59
2022-08-04T22:43:33.757Z,55.73
2022-08-04T22:46:26.681Z,55.75
2022-08-04T22:49:13.446Z,55.93
2022-08-04T22:51:55.245Z,56.22
2022-08-04T22:54:40.602Z,56.46
2022-08-04T22:57:42.961Z,56.46
2022-08-04T23:00:29.472Z,56.75
2022-08-04T23:03:37.008Z,57.18
2022-08-04T23:06:11.920Z,57.49
2022-08-04T23:08:53.578Z,57.54
2022-08-04T23:11:34.776Z,57.85
2022-08-04T23:14:10.662Z,57.86
2022-08-04T23:16:42.228Z,58.24
2022-08-04T23:19:24.664Z,58.37
2022-08-04T23:22:41.541Z,58.73
2022-08-04T23:25:19.035Z,58.96
2022-08-04T23:28:26.960Z,59.20
2022-08-04T23:31:05.904Z,59.59
2022-08-04T23:33:53.360Z,59.93
2022-08-04T23:36:44.345Z,59.94
2022-08-04T23:40:03.880Z,60.39
2022-08-04T23:42:26.668Z,60.55
2022-08-04T23:46:04.410Z,60.69
2022-08-04T23:48:19.334Z,60.89
2022-08-04T23:51:15.537Z,61.13
2022-08-04T23:54:03.393Z,61.29
2022-08-04T23:56:38.746Z,61.48
2022-08-04T23:59:49.110Z,61.67
